createdAt,value
2023-05-25T00:01:22.176Z,17.95
2023-05-25T00:03:53.009Z,17.94
2023-05-25T00:06:26.889Z,17.93
2023-05-25T00:08:57.246Z,17.94
2023-05-25T00:11:26.837Z,17.98
2023-05-25T00:13:54.669Z,17.98
2023-05-25T00:16:22.676Z,17.96
2023-05-25T00:18:50.962Z,17.95
2023-05-25T00:21:22.603Z,17.96
2023-05-25T00:23:50.712Z,17.94
2023-05-25T00:26:19.788Z,17.92
2023-05-25T00:28:47.972Z,17.93
2023-05-25T00:31:16.943Z,17.92
2023-05-25T00:33:47.575Z,17.91
2023-05-25T00:36:15.836Z,17.90
2023-05-25T00:38:45.129Z,17.88
2023-05-25T00:41:13.638Z,17.85
2023-05-25T00:43:41.857Z,17.82
2023-05-25T00:46:10.771Z,17.80
2023-05-25T00:48:41.206Z,17.78
2023-05-25T00:51:09.017Z,17.76
2023-05-25T00:53:39.998Z,17.73
2023-05-25T00:56:16.070Z,17.69
2023-05-25T00:58:44.046Z,17.65
2023-05-25T01:01:15.409Z,17.63
2023-05-25T01:03:47.927Z,17.61
2023-05-25T01:06:16.212Z,17.57
2023-05-25T01:08:48.997Z,17.57
2023-05-25T01:11:17.514Z,17.56
2023-05-25T01:13:46.140Z,17.56
2023-05-25T01:16:14.745Z,17.55
2023-05-25T01:19:03.161Z,17.55
2023-05-25T01:21:43.168Z,17.56
2023-05-25T01:24:55.846Z,17.60
2023-05-25T01:27:47.813Z,17.58
2023-05-25T01:30:16.583Z,17.56
2023-05-25T01:32:45.070Z,17.55
2023-05-25T01:35:15.023Z,17.53
2023-05-25T01:37:55.150Z,17.50
2023-05-25T01:40:26.211Z,17.46
2023-05-25T01:42:54.467Z,17.45
2023-05-25T01:45:22.678Z,17.42
2023-05-25T01:48:14.222Z,17.40
2023-05-25T01:50:59.954Z,17.38
2023-05-25T01:53:49.994Z,17.40
2023-05-25T01:56:27.455Z,17.42
2023-05-25T01:58:55.950Z,17.42
2023-05-25T02:01:24.927Z,17.44
2023-05-25T02:03:56.594Z,17.46
2023-05-25T02:06:24.963Z,17.46
2023-05-25T02:08:53.659Z,17.43
2023-05-25T02:11:23.365Z,17.39
2023-05-25T02:13:55.807Z,17.35
2023-05-25T02:16:24.140Z,17.36
2023-05-25T02:18:52.446Z,17.36
2023-05-25T02:21:20.178Z,17.36
2023-05-25T02:23:48.002Z,17.40
2023-05-25T02:26:16.229Z,17.41
2023-05-25T02:28:44.474Z,17.44
2023-05-25T02:31:13.261Z,17.45
2023-05-25T02:34:00.984Z,17.46
2023-05-25T02:36:32.102Z,17.48
2023-05-25T02:39:02.700Z,17.49
2023-05-25T02:41:34.326Z,17.46
2023-05-25T02:44:03.136Z,17.44
2023-05-25T02:46:34.016Z,17.45
2023-05-25T02:49:01.965Z,17.43
2023-05-25T02:51:55.268Z,17.43
2023-05-25T02:54:23.112Z,17.44
2023-05-25T02:56:51.121Z,17.44
2023-05-25T02:59:19.783Z,17.45
2023-05-25T03:01:48.386Z,17.47
2023-05-25T03:04:18.803Z,17.51
2023-05-25T03:06:46.538Z,17.53
2023-05-25T03:09:18.569Z,17.52
2023-05-25T03:11:48.241Z,17.51
2023-05-25T03:14:17.849Z,17.50
2023-05-25T03:16:54.206Z,17.51
2023-05-25T03:19:23.460Z,17.51
2023-05-25T03:21:51.856Z,17.52
2023-05-25T03:24:20.126Z,17.53
2023-05-25T03:26:48.277Z,17.54
2023-05-25T03:29:16.481Z,17.57
2023-05-25T03:31:45.502Z,17.62
2023-05-25T03:34:15.912Z,17.66
2023-05-25T03:36:46.112Z,17.69
2023-05-25T03:39:14.777Z,17.71
2023-05-25T03:41:44.879Z,17.70
2023-05-25T03:44:14.010Z,17.69
2023-05-25T03:46:47.184Z,17.70
2023-05-25T03:49:16.519Z,17.74
2023-05-25T03:51:48.831Z,17.78
2023-05-25T03:54:19.932Z,17.83
2023-05-25T03:56:52.589Z,17.87
2023-05-25T03:59:21.776Z,17.91
2023-05-25T04:01:54.933Z,17.96
2023-05-25T04:04:24.482Z,17.96
2023-05-25T04:06:56.064Z,17.95
2023-05-25T04:09:51.147Z,17.94
2023-05-25T04:12:27.154Z,17.96
2023-05-25T04:14:56.704Z,18.01
2023-05-25T04:17:27.913Z,18.04
2023-05-25T04:19:58.379Z,18.06
2023-05-25T04:22:28.632Z,18.12
2023-05-25T04:24:59.626Z,18.18
2023-05-25T04:27:29.457Z,18.22
2023-05-25T04:29:59.684Z,18.24
2023-05-25T04:32:47.679Z,18.33
2023-05-25T04:35:36.959Z,18.45
2023-05-25T04:38:07.678Z,18.57
2023-05-25T04:40:38.329Z,18.65
2023-05-25T04:43:10.365Z,18.72
2023-05-25T04:45:40.661Z,18.78
2023-05-25T04:48:28.076Z,18.81
2023-05-25T04:50:57.665Z,18.88
2023-05-25T04:53:30.811Z,18.96
2023-05-25T04:55:59.596Z,19.04
2023-05-25T04:58:30.637Z,19.11
2023-05-25T05:01:03.858Z,19.15
2023-05-25T05:03:38.720Z,19.21
2023-05-25T05:06:31.672Z,19.27
2023-05-25T05:09:04.588Z,19.32
2023-05-25T05:11:46.642Z,19.39
2023-05-25T05:14:15.121Z,19.47
2023-05-25T05:16:44.854Z,19.56
2023-05-25T05:19:12.923Z,19.63
2023-05-25T05:21:42.392Z,19.66
2023-05-25T05:24:10.288Z,19.71
2023-05-25T05:26:55.441Z,19.79
2023-05-25T05:29:28.994Z,19.89
2023-05-25T05:31:56.932Z,19.99
2023-05-25T05:34:25.795Z,20.17
2023-05-25T05:36:57.908Z,20.39
2023-05-25T05:39:27.626Z,20.57
2023-05-25T05:41:55.650Z,20.70
2023-05-25T05:44:25.983Z,20.82
2023-05-25T05:47:01.348Z,20.98
2023-05-25T05:49:30.981Z,21.12
2023-05-25T05:52:00.302Z,21.27
2023-05-25T05:54:29.081Z,21.47
2023-05-25T05:57:01.835Z,21.60
2023-05-25T05:59:29.604Z,21.72
2023-05-25T06:01:57.616Z,21.88
2023-05-25T06:04:29.777Z,22.08
2023-05-25T06:06:59.259Z,22.18
2023-05-25T06:09:27.106Z,22.33
2023-05-25T06:11:56.899Z,22.50
2023-05-25T06:14:26.084Z,22.75
2023-05-25T06:16:56.450Z,23.09
2023-05-25T06:19:25.564Z,23.48
2023-05-25T06:21:53.310Z,23.81
2023-05-25T06:24:22.046Z,24.12
2023-05-25T06:26:50.761Z,24.39
2023-05-25T06:29:18.687Z,24.54
2023-05-25T06:31:46.387Z,24.56
2023-05-25T06:34:14.270Z,24.59
2023-05-25T06:36:42.024Z,24.43
2023-05-25T06:39:10.715Z,24.15
2023-05-25T06:41:39.120Z,23.99
2023-05-25T06:44:09.863Z,23.85
2023-05-25T06:46:43.724Z,23.72
2023-05-25T06:49:11.499Z,23.76
2023-05-25T06:51:39.165Z,23.84
2023-05-25T06:54:09.449Z,23.88
2023-05-25T06:56:37.200Z,23.91
2023-05-25T06:59:04.933Z,23.82
2023-05-25T07:01:32.683Z,23.69
2023-05-25T07:04:00.381Z,23.55
2023-05-25T07:06:28.073Z,23.50
2023-05-25T07:08:56.019Z,23.57
2023-05-25T07:11:23.714Z,23.58
2023-05-25T07:13:51.531Z,23.44
2023-05-25T07:16:19.296Z,23.31
2023-05-25T07:18:48.015Z,23.33
2023-05-25T07:21:15.705Z,23.50
2023-05-25T07:23:43.442Z,23.69
2023-05-25T07:26:11.149Z,23.95
2023-05-25T07:28:39.307Z,24.16
2023-05-25T07:31:06.998Z,24.24
2023-05-25T07:33:34.773Z,24.35
2023-05-25T07:36:02.456Z,24.41
2023-05-25T07:38:30.829Z,24.56
2023-05-25T07:40:58.453Z,24.67
2023-05-25T07:43:26.796Z,24.73
2023-05-25T07:45:54.903Z,24.74
2023-05-25T07:48:22.999Z,24.76
2023-05-25T07:50:50.712Z,24.71
2023-05-25T07:53:18.471Z,24.52
2023-05-25T07:55:46.409Z,24.42
2023-05-25T07:58:14.491Z,24.37
2023-05-25T08:00:42.313Z,24.35
2023-05-25T08:03:11.160Z,24.42
2023-05-25T08:05:40.226Z,24.61
2023-05-25T08:08:07.919Z,24.83
2023-05-25T08:10:35.565Z,25.14
2023-05-25T08:13:03.249Z,25.47
2023-05-25T08:15:31.601Z,25.75
2023-05-25T08:17:59.359Z,25.91
2023-05-25T08:20:27.019Z,26.00
2023-05-25T08:22:54.836Z,26.01
2023-05-25T08:25:22.645Z,25.83
2023-05-25T08:27:50.415Z,25.48
2023-05-25T08:30:18.177Z,25.19
2023-05-25T08:32:46.431Z,25.03
2023-05-25T08:35:14.416Z,24.87
2023-05-25T08:37:43.762Z,24.70
2023-05-25T08:40:16.107Z,24.45
2023-05-25T08:42:44.689Z,24.17
2023-05-25T08:45:22.601Z,24.00
2023-05-25T08:48:04.910Z,23.87
2023-05-25T08:50:33.000Z,23.77
2023-05-25T08:53:03.972Z,23.80
2023-05-25T08:55:32.152Z,23.88
2023-05-25T08:58:07.127Z,23.96
2023-05-25T09:00:36.734Z,24.01
2023-05-25T09:03:11.399Z,24.00
2023-05-25T09:05:39.504Z,24.03
2023-05-25T09:08:07.412Z,24.09
2023-05-25T09:10:36.160Z,24.15
2023-05-25T09:13:19.506Z,24.21
2023-05-25T09:15:49.490Z,24.27
2023-05-25T09:18:17.458Z,24.33
2023-05-25T09:20:47.267Z,24.35
2023-05-25T09:23:15.574Z,24.32
2023-05-25T09:25:44.430Z,24.34
2023-05-25T09:30:43.544Z,24.36
2023-05-25T09:33:17.974Z,24.38
2023-05-25T09:35:48.968Z,24.36
2023-05-25T09:38:17.039Z,24.38
2023-05-25T09:40:45.358Z,24.42
2023-05-25T09:43:22.017Z,24.38
2023-05-25T09:45:57.131Z,24.26
2023-05-25T09:48:25.009Z,24.14
2023-05-25T09:50:53.164Z,24.05
2023-05-25T09:53:21.374Z,23.96
2023-05-25T09:55:53.145Z,23.85
2023-05-25T09:58:27.645Z,23.75
2023-05-25T10:00:55.924Z,23.65
2023-05-25T10:03:23.736Z,23.58
2023-05-25T10:05:52.101Z,23.48
2023-05-25T10:08:21.308Z,23.39
2023-05-25T10:10:53.067Z,23.22
2023-05-25T10:13:25.564Z,23.05
2023-05-25T10:15:54.702Z,22.85
2023-05-25T10:18:27.709Z,22.67
2023-05-25T10:21:04.742Z,22.50
2023-05-25T10:23:45.233Z,22.36
2023-05-25T10:26:17.142Z,22.21
2023-05-25T10:28:45.063Z,22.12
2023-05-25T10:31:12.815Z,22.08
2023-05-25T10:33:41.572Z,22.00
2023-05-25T10:36:11.531Z,21.86
2023-05-25T10:38:45.126Z,21.71
2023-05-25T10:41:13.525Z,21.61
2023-05-25T10:43:41.494Z,21.52
2023-05-25T10:46:09.392Z,21.43
2023-05-25T10:48:40.684Z,21.33
2023-05-25T10:51:10.171Z,21.27
2023-05-25T10:53:39.627Z,21.21
2023-05-25T10:56:10.150Z,21.18
2023-05-25T10:58:41.212Z,21.14
2023-05-25T11:01:10.377Z,21.07
2023-05-25T11:03:45.170Z,21.02
2023-05-25T11:06:21.868Z,20.92
2023-05-25T11:08:57.487Z,20.84
2023-05-25T11:11:43.688Z,20.79
2023-05-25T11:14:24.339Z,20.78
2023-05-25T11:17:12.167Z,20.80
2023-05-25T11:19:50.346Z,20.82
2023-05-25T11:22:38.078Z,20.84
2023-05-25T11:25:36.769Z,20.85
2023-05-25T11:28:07.101Z,20.86
2023-05-25T11:30:34.860Z,20.88
2023-05-25T11:33:08.054Z,20.91
2023-05-25T11:35:37.410Z,20.96
2023-05-25T11:38:06.944Z,21.00
2023-05-25T11:40:35.479Z,21.03
2023-05-25T11:43:04.258Z,21.06
2023-05-25T11:45:33.628Z,21.10
2023-05-25T11:48:01.317Z,21.16
2023-05-25T11:50:29.056Z,21.23
2023-05-25T11:52:56.866Z,21.27
2023-05-25T11:55:24.581Z,21.35
2023-05-25T11:57:56.947Z,21.42
2023-05-25T12:00:25.973Z,21.49
2023-05-25T12:02:53.764Z,21.55
2023-05-25T12:05:23.575Z,21.60
2023-05-25T12:07:52.130Z,21.66
2023-05-25T12:10:19.947Z,21.72
2023-05-25T12:12:51.593Z,21.77
2023-05-25T12:15:24.009Z,21.83
2023-05-25T12:17:52.445Z,21.92
2023-05-25T12:20:20.855Z,22.01
2023-05-25T12:22:48.889Z,22.05
2023-05-25T12:25:19.846Z,22.05
2023-05-25T12:27:47.566Z,22.09
2023-05-25T12:30:15.477Z,22.15
2023-05-25T12:33:04.089Z,22.22
2023-05-25T12:35:49.256Z,22.27
2023-05-25T12:38:18.533Z,22.27
2023-05-25T12:40:47.142Z,22.26
2023-05-25T12:43:15.559Z,22.24
2023-05-25T12:45:43.532Z,22.22
2023-05-25T12:48:12.161Z,22.18
2023-05-25T12:50:41.068Z,22.17
2023-05-25T12:53:08.970Z,22.14
2023-05-25T12:55:37.372Z,22.10
2023-05-25T12:58:06.073Z,22.05
2023-05-25T13:00:38.120Z,21.97
2023-05-25T13:03:08.064Z,21.90
2023-05-25T13:05:37.121Z,21.82
2023-05-25T13:08:05.476Z,21.79
2023-05-25T13:10:34.243Z,21.76
2023-05-25T13:13:02.283Z,21.75
2023-05-25T13:15:29.967Z,21.74
2023-05-25T13:18:00.788Z,21.74
2023-05-25T13:20:32.705Z,21.75
2023-05-25T13:23:01.027Z,21.75
2023-05-25T13:25:28.907Z,21.74
2023-05-25T13:27:58.268Z,21.76
2023-05-25T13:30:26.606Z,21.80
2023-05-25T13:32:54.927Z,21.84
2023-05-25T13:35:42.005Z,21.90
2023-05-25T13:38:10.756Z,21.92
2023-05-25T13:40:38.489Z,21.92
2023-05-25T13:43:06.351Z,21.90
2023-05-25T13:45:34.192Z,21.91
2023-05-25T13:48:02.415Z,21.94
2023-05-25T13:50:30.331Z,21.98
2023-05-25T13:52:58.054Z,22.01
2023-05-25T13:55:25.732Z,22.02
2023-05-25T13:57:53.802Z,22.04
2023-05-25T14:00:21.854Z,22.04
2023-05-25T14:02:49.648Z,22.02
2023-05-25T14:05:18.543Z,22.00
2023-05-25T14:07:47.377Z,21.99
2023-05-25T14:10:15.525Z,22.02
2023-05-25T14:12:43.230Z,22.07
2023-05-25T14:15:11.370Z,22.11
2023-05-25T14:17:39.656Z,22.12
2023-05-25T14:20:08.000Z,22.12
2023-05-25T14:22:36.121Z,22.12
2023-05-25T14:25:04.124Z,22.12
2023-05-25T14:27:31.831Z,22.15
2023-05-25T14:29:59.538Z,22.17
2023-05-25T14:32:27.390Z,22.20
2023-05-25T14:34:55.065Z,22.22
2023-05-25T14:37:22.710Z,22.19
2023-05-25T14:39:50.478Z,22.16
2023-05-25T14:42:18.148Z,22.11
2023-05-25T14:44:46.962Z,22.03
2023-05-25T14:47:14.819Z,21.96
2023-05-25T14:49:42.794Z,21.93
2023-05-25T14:52:10.780Z,21.89
2023-05-25T14:54:44.965Z,21.84
2023-05-25T14:57:12.833Z,21.83
2023-05-25T14:59:40.501Z,21.81
2023-05-25T15:02:08.264Z,21.80
2023-05-25T15:04:36.040Z,21.81
2023-05-25T15:07:03.982Z,21.76
2023-05-25T15:09:33.480Z,21.70
2023-05-25T15:12:02.202Z,21.65
2023-05-25T15:14:29.947Z,21.60
2023-05-25T15:16:59.830Z,21.56
2023-05-25T15:19:27.525Z,21.53
2023-05-25T15:21:55.146Z,21.49
2023-05-25T15:24:23.980Z,21.49
2023-05-25T15:26:52.372Z,21.46
2023-05-25T15:29:20.400Z,21.40
2023-05-25T15:31:51.225Z,21.36
2023-05-25T15:34:18.971Z,21.32
2023-05-25T15:36:46.802Z,21.27
2023-05-25T15:39:15.644Z,21.20
2023-05-25T15:41:43.401Z,21.16
2023-05-25T15:44:12.886Z,21.12
2023-05-25T15:46:41.162Z,21.10
2023-05-25T15:49:11.698Z,21.07
2023-05-25T15:51:41.850Z,21.02
2023-05-25T15:54:14.153Z,20.97
2023-05-25T15:56:42.627Z,20.94
2023-05-25T15:59:12.633Z,20.92
2023-05-25T16:01:40.630Z,20.92
2023-05-25T16:04:08.624Z,20.94
2023-05-25T16:06:38.552Z,20.90
2023-05-25T16:09:06.814Z,20.85
2023-05-25T16:11:34.975Z,20.82
2023-05-25T16:14:03.097Z,20.79
2023-05-25T16:16:30.979Z,20.75
2023-05-25T16:18:59.334Z,20.71
2023-05-25T16:21:27.163Z,20.70
2023-05-25T16:23:55.312Z,20.69
2023-05-25T16:26:23.918Z,20.67
2023-05-25T16:28:51.754Z,20.64
2023-05-25T16:31:19.433Z,20.60
2023-05-25T16:33:48.165Z,20.57
2023-05-25T16:36:17.489Z,20.57
2023-05-25T16:38:45.869Z,20.57
2023-05-25T16:41:14.643Z,20.57
2023-05-25T16:43:42.248Z,20.56
2023-05-25T16:46:10.516Z,20.54
2023-05-25T16:48:38.261Z,20.51
2023-05-25T16:51:07.469Z,20.49
2023-05-25T16:53:36.628Z,20.48
2023-05-25T16:56:04.596Z,20.49
2023-05-25T16:58:32.288Z,20.51
2023-05-25T17:01:00.122Z,20.49
2023-05-25T17:03:30.457Z,20.46
2023-05-25T17:05:59.033Z,20.46
2023-05-25T17:08:27.371Z,20.44
2023-05-25T17:10:55.100Z,20.44
2023-05-25T17:13:22.998Z,20.44
2023-05-25T17:15:52.714Z,20.46
2023-05-25T17:18:21.947Z,20.45
2023-05-25T17:20:49.575Z,20.42
2023-05-25T17:23:18.245Z,20.41
2023-05-25T17:25:48.374Z,20.38
2023-05-25T17:28:16.208Z,20.35
2023-05-25T17:30:43.984Z,20.33
2023-05-25T17:33:11.767Z,20.31
2023-05-25T17:35:39.588Z,20.30
2023-05-25T17:38:07.822Z,20.29
2023-05-25T17:40:35.743Z,20.27
2023-05-25T17:43:03.512Z,20.26
2023-05-25T17:45:32.820Z,20.24
2023-05-25T17:48:01.237Z,20.24
2023-05-25T17:50:29.104Z,20.24
2023-05-25T17:52:57.946Z,20.25
2023-05-25T17:55:26.262Z,20.26
2023-05-25T17:57:55.789Z,20.25
2023-05-25T18:00:25.069Z,20.23
2023-05-25T18:02:53.620Z,20.21
2023-05-25T18:05:23.646Z,20.19
2023-05-25T18:07:52.930Z,20.18
2023-05-25T18:10:22.414Z,20.21
2023-05-25T18:12:52.969Z,20.20
2023-05-25T18:15:20.920Z,20.23
2023-05-25T18:17:48.849Z,20.25
2023-05-25T18:20:16.866Z,20.24
2023-05-25T18:22:45.253Z,20.24
2023-05-25T18:25:13.697Z,20.24
2023-05-25T18:27:42.092Z,20.24
2023-05-25T18:30:11.699Z,20.23
2023-05-25T18:32:43.097Z,20.23
2023-05-25T18:35:12.152Z,20.23
2023-05-25T18:37:41.246Z,20.22
2023-05-25T18:40:11.904Z,20.20
2023-05-25T18:42:40.260Z,20.20
2023-05-25T18:45:09.526Z,20.18
2023-05-25T18:47:40.473Z,20.15
2023-05-25T18:50:10.842Z,20.12
2023-05-25T18:52:39.942Z,20.11
2023-05-25T18:55:08.370Z,20.10
2023-05-25T18:57:36.688Z,20.10
2023-05-25T19:00:07.531Z,20.10
2023-05-25T19:02:37.264Z,20.08
2023-05-25T19:05:07.069Z,20.03
2023-05-25T19:07:44.183Z,19.99
2023-05-25T19:10:18.948Z,19.96
2023-05-25T19:12:49.516Z,19.92
2023-05-25T19:15:18.343Z,19.90
2023-05-25T19:17:47.108Z,19.93
2023-05-25T19:20:18.645Z,19.93
2023-05-25T19:22:46.886Z,19.92
2023-05-25T19:25:15.973Z,19.88
2023-05-25T19:27:51.922Z,19.83
2023-05-25T19:30:24.222Z,19.76
2023-05-25T19:32:52.873Z,19.69
2023-05-25T19:35:23.086Z,19.64
2023-05-25T19:38:12.042Z,19.63
2023-05-25T19:40:42.962Z,19.61
2023-05-25T19:43:49.332Z,19.58
2023-05-25T19:46:23.354Z,19.55
2023-05-25T19:49:00.496Z,19.51
2023-05-25T19:51:45.714Z,19.44
2023-05-25T19:54:19.622Z,19.37
2023-05-25T19:56:54.345Z,19.29
2023-05-25T19:59:41.414Z,19.24
2023-05-25T20:02:21.375Z,19.20
2023-05-25T20:04:52.731Z,19.16
2023-05-25T20:07:25.473Z,19.13
2023-05-25T20:09:56.361Z,19.11
2023-05-25T20:12:27.429Z,19.08
2023-05-25T20:14:59.039Z,19.06
2023-05-25T20:17:35.393Z,19.01
2023-05-25T20:20:07.596Z,18.96
2023-05-25T20:22:39.331Z,18.93
2023-05-25T20:25:22.882Z,18.91
2023-05-25T20:28:03.309Z,18.89
2023-05-25T20:30:37.353Z,18.86
2023-05-25T20:40:23.128Z,18.82
2023-05-25T20:42:50.850Z,18.75
2023-05-25T20:45:18.551Z,18.68
2023-05-25T20:47:47.016Z,18.59
2023-05-25T20:50:15.637Z,18.50
2023-05-25T20:52:44.422Z,18.46
2023-05-25T20:55:14.400Z,18.40
2023-05-25T20:57:42.189Z,18.36
2023-05-25T21:00:12.610Z,18.33
2023-05-25T21:02:45.671Z,18.27
2023-05-25T21:05:13.600Z,18.24
2023-05-25T21:07:41.674Z,18.21
2023-05-25T21:10:10.402Z,18.14
2023-05-25T21:12:40.053Z,18.11
2023-05-25T21:15:10.589Z,18.10
2023-05-25T21:17:44.241Z,18.09
2023-05-25T21:20:15.054Z,18.06
2023-05-25T21:22:42.740Z,18.04
2023-05-25T21:25:12.534Z,18.02
2023-05-25T21:27:42.347Z,18.04
2023-05-25T21:30:11.956Z,18.05
2023-05-25T21:32:40.431Z,18.06
2023-05-25T21:35:19.823Z,18.06
2023-05-25T21:37:49.225Z,18.06
2023-05-25T21:40:18.024Z,18.07
2023-05-25T21:42:51.089Z,18.09
2023-05-25T21:45:26.382Z,18.10
2023-05-25T21:47:55.401Z,18.12
2023-05-25T21:50:36.962Z,18.15
2023-05-25T21:53:07.150Z,18.19
2023-05-25T21:55:35.957Z,18.23
2023-05-25T21:58:06.643Z,18.26
2023-05-25T22:00:35.948Z,18.29
2023-05-25T22:03:21.918Z,18.30
2023-05-25T22:05:50.392Z,18.32
2023-05-25T22:08:20.105Z,18.38
2023-05-25T22:10:55.011Z,18.40
2023-05-25T22:13:25.845Z,18.41
2023-05-25T22:15:56.129Z,18.39
2023-05-25T22:18:26.322Z,18.33
2023-05-25T22:21:18.715Z,18.32
2023-05-25T22:23:47.273Z,18.31
2023-05-25T22:26:16.123Z,18.33
2023-05-25T22:29:05.983Z,18.31
2023-05-25T22:31:33.838Z,18.25
2023-05-25T22:34:02.940Z,18.21
2023-05-25T22:36:30.591Z,18.18
2023-05-25T22:39:03.236Z,18.12
2023-05-25T22:41:33.991Z,18.01
2023-05-25T22:44:01.787Z,17.95
2023-05-25T22:46:32.605Z,17.89
2023-05-25T22:49:00.833Z,17.84
2023-05-25T22:51:28.550Z,17.82
2023-05-25T22:54:04.126Z,17.81
2023-05-25T22:56:32.106Z,17.81
2023-05-25T22:59:00.425Z,17.82
2023-05-25T23:01:29.423Z,17.80
2023-05-25T23:04:00.076Z,17.71
2023-05-25T23:06:28.431Z,17.62
2023-05-25T23:08:57.924Z,17.54
2023-05-25T23:11:27.827Z,17.46
2023-05-25T23:13:55.481Z,17.40
2023-05-25T23:16:23.876Z,17.29
2023-05-25T23:18:53.274Z,17.21
2023-05-25T23:21:21.855Z,17.15
2023-05-25T23:23:50.888Z,17.10
2023-05-25T23:26:18.580Z,17.08
2023-05-25T23:28:46.400Z,17.05
2023-05-25T23:31:14.193Z,17.02
2023-05-25T23:33:43.224Z,17.01
2023-05-25T23:36:10.884Z,16.99
2023-05-25T23:38:40.236Z,17.01
2023-05-25T23:41:08.146Z,17.04
2023-05-25T23:43:35.784Z,17.07
2023-05-25T23:46:04.518Z,17.10
2023-05-25T23:48:34.587Z,17.13
2023-05-25T23:51:09.087Z,17.12
2023-05-25T23:53:38.981Z,17.12
2023-05-25T23:56:08.251Z,17.13
2023-05-25T23:58:37.143Z,17.12
